Share

Statesboro, GA

12:07 PM EDT on April 23, 2014 (GMT -0400)
Statesboro-Bulloch County (KTBR) Elev 187 ft | 32.48 °N, 81.74 °W | Change Station
Active Advisory: Flood Warning

Current weather conditions updated 12 minutes ago

Clear
Clear
76 °F
Feels Like 76 °F
N
12
Wind Variable Wind from NNW
Gusts 20 mph
Sunrise 6:48 AM
Sunset 8:02 PM
Moon Waning Crescent

Today is forecast to be nearly the same temperature as yesterday.

Pressure 29.91 in
Visibility 10.0 miles
Clouds Clear
Dew Point 46 °F
Humidity 34%
Rainfall 0.00 in
Snow Depth Not available.
UV 11 out of 16
Pollen 8.20 out of 12
Air Quality Not available.
Flu Activity Sporadic
METAR KTBR 231555Z AUTO 34010G17KT 10SM CLR 25/08 A2991 RMK AO2 T02460078

More Conditions Fewer Conditions

Pressure 29.91 in
Visibility 10.0 miles
Clouds Clear
Dew Point 46 °F
Humidity 34%
Rainfall 0.00 in
Snow Depth Not available.
UV 11 out of 16
Pollen 8.20 out of 12
Air Quality Not available.
Flu Activity Sporadic
METAR KTBR 231555Z AUTO 34010G17KT 10SM CLR 25/08 A2991 RMK AO2 T02460078

More Conditions Fewer Conditions

10-Day Weather Forecast

Almanac

Astronomy

Apr. 23, 2014 Rise Set
Actual Time 6:48 AM EDT 8:02 PM EDT
Civil Twilight 6:23 AM EDT 8:28 PM EDT
Nautical Twilight 5:52 AM EDT 8:58 PM EDT
Astronomical Twilight 5:21 AM EDT 9:30 PM EDT
Moon 2:58 AM EDT 2:29 PM EDT
Length of Visible Light 14h 05m
Length of Day
13h 13m
Tomorrow will be 1m 48s longer.
Waning Crescent, 35% of the Moon is Illuminated
Today
Waning Crescent
Apr 29
New
May 6
First Quarter
May 14
Full
May 21
Last Quarter

Today's Extremes

State Highs State Lows

Community

  • spring flowers
    spring flowers
  • Earth Day Spectrum Ove' Blue
    Earth Day Spectrum Ove' Blue
  • BARN B&W
    BARN B&W
  • April Sunset
    April Sunset
  • Waiting..
    Waiting..

WunderPhotos

Upload Photos

1,704,319 photos uploaded!

Nearby

Snow Depth

Station Depth Elevation
No new snow has been reported.

Coastal Water Temperatures

Place Temperature
No Stations Reporting

Earthquake Activity

City Distance Mag. Time & Date
No recent earthquake activity has been reported nearby.
Minimum magnitude displayed is 2.5.

Nearby Weather Stations

Station Location Temp. Heat Index Dew Point Humidity Wind Precip. Elev Updated Type
RAWS METTER GA, Metter, GA 74 °F 76 °F 61 °F 65% NNW  at  6 mph 0.00 in / hr 198 ft 11:03 AM EDT MADIS
Hope Street, Metter, GA 77.3 °F 79 °F 61 °F 58% South  at  4.0 mph 0.00 in / hr 211 ft 12:06 PM EDT Rapid Fire
Georgia Gold, Pembroke, GA 75.0 °F 78 °F 58 °F 56% SW  at  7.0 mph 0.00 in / hr 93 ft 12:05 PM EDT Normal
Stilson-Ellabell, Brooklet, GA 76.2 °F 78 °F 59 °F 55% SW  at  3.0 mph 0.00 in / hr 95 ft 12:06 PM EDT Normal

Show More Stations Show Fewer Stations

What do you think?

We're not finished. Please let us know what you like, what you don't like, and what you are still missing.